Time;durP1;ratioP1;P1;durP2;ratioP2;P2;SDS_P1;SDS_P2;PMS_P1;PMS_P2;Temp;Humidity;BMP_temperature;BMP_pressure;BME280_temperature;BME280_humidity;BME280_pressure;Samples;Min_cycle;Max_cycle;Signal;HPM_P1;HPM_P2
2023/12/14 00:01:25;;;;;;;23.10;12.90;;;7.00;99.90;;;;;;5055240;28;20253;-69
2023/12/14 00:03:51;;;;;;;20.80;14.03;;;7.00;99.90;;;;;;5055226;28;20601;-69
2023/12/14 00:06:16;;;;;;;23.70;14.60;;;6.90;99.90;;;;;;5053869;28;20202;-69
2023/12/14 00:08:42;;;;;;;20.73;13.70;;;6.90;99.90;;;;;;5054976;28;20207;-69
2023/12/14 00:11:09;;;;;;;22.00;13.70;;;6.90;99.90;;;;;;5053661;28;20198;-69
2023/12/14 00:13:35;;;;;;;24.53;12.90;;;6.90;99.90;;;;;;5054955;28;20178;-68
2023/12/14 00:16:01;;;;;;;21.67;11.37;;;6.90;99.90;;;;;;5055075;28;20232;-69
2023/12/14 00:18:27;;;;;;;20.27;11.73;;;6.90;99.90;;;;;;5053379;28;20200;-69
2023/12/14 00:20:56;;;;;;;19.70;11.30;;;6.90;99.90;;;;;;5054786;28;20186;-68
2023/12/14 00:23:22;;;;;;;23.70;11.20;;;6.90;99.90;;;;;;5053990;28;20178;-69
2023/12/14 00:25:48;;;;;;;20.77;10.93;;;6.80;99.90;;;;;;5055303;28;20175;-69
2023/12/14 00:28:14;;;;;;;15.37;9.73;;;6.80;99.90;;;;;;5055223;28;20205;-69
2023/12/14 00:30:40;;;;;;;22.27;10.27;;;6.80;99.90;;;;;;5055382;28;20672;-69
2023/12/14 00:33:05;;;;;;;23.83;10.30;;;6.80;99.90;;;;;;5055626;28;20532;-69
2023/12/14 00:35:31;;;;;;;21.77;10.70;;;6.70;99.90;;;;;;5055758;28;20639;-69
2023/12/14 00:37:57;;;;;;;19.93;12.97;;;6.70;99.90;;;;;;5056067;28;20190;-68
2023/12/14 00:40:23;;;;;;;21.27;14.33;;;6.70;99.90;;;;;;5054479;28;20273;-69
2023/12/14 00:42:49;;;;;;;27.07;15.20;;;6.70;99.90;;;;;;5053120;28;20186;-69
2023/12/14 00:45:14;;;;;;;24.13;15.77;;;6.70;99.90;;;;;;5053005;28;20190;-69
2023/12/14 00:47:40;;;;;;;26.63;15.37;;;6.70;99.90;;;;;;5054076;28;20201;-68
2023/12/14 00:50:06;;;;;;;22.63;15.67;;;6.60;99.90;;;;;;5053743;28;20581;-69
2023/12/14 00:52:33;;;;;;;23.27;15.83;;;6.60;99.90;;;;;;5054305;28;20636;-68
2023/12/14 00:54:58;;;;;;;27.43;15.60;;;6.60;99.90;;;;;;5052857;28;20189;-68
2023/12/14 00:57:24;;;;;;;26.10;15.73;;;6.60;99.90;;;;;;5054498;28;20170;-69
2023/12/14 00:59:50;;;;;;;25.07;15.23;;;6.50;99.90;;;;;;5052795;28;20181;-69
2023/12/14 01:02:16;;;;;;;23.57;14.60;;;6.50;99.90;;;;;;5054435;28;20631;-69
2023/12/14 01:04:42;;;;;;;25.67;15.23;;;6.50;99.90;;;;;;5053616;28;20228;-69
2023/12/14 01:07:08;;;;;;;26.03;14.63;;;6.40;99.90;;;;;;5054132;28;20232;-68
2023/12/14 01:09:34;;;;;;;24.10;15.17;;;6.40;99.90;;;;;;5053659;28;20220;-69
2023/12/14 01:11:59;;;;;;;24.80;15.17;;;6.40;99.90;;;;;;5053322;28;20182;-69
2023/12/14 01:14:25;;;;;;;22.63;14.20;;;6.40;99.90;;;;;;5053784;28;20181;-69
2023/12/14 01:16:51;;;;;;;26.43;15.70;;;6.40;99.90;;;;;;5052537;28;20269;-69
2023/12/14 01:19:17;;;;;;;28.37;15.43;;;6.40;99.90;;;;;;5052133;28;20217;-69
2023/12/14 01:21:43;;;;;;;21.97;14.70;;;6.30;99.90;;;;;;5053732;28;20170;-69
2023/12/14 01:24:09;;;;;;;25.10;14.07;;;6.40;99.90;;;;;;5054183;28;20232;-69
2023/12/14 01:26:34;;;;;;;22.47;14.43;;;6.40;99.90;;;;;;5052230;28;20178;-69
2023/12/14 01:29:00;;;;;;;29.80;13.33;;;6.40;99.90;;;;;;5053522;28;20201;-69
2023/12/14 01:31:26;;;;;;;18.43;12.73;;;6.40;99.90;;;;;;5053752;28;20284;-69
2023/12/14 01:33:52;;;;;;;17.87;11.07;;;6.40;99.90;;;;;;5053949;28;20615;-68
2023/12/14 01:36:25;;;;;;;20.10;11.53;;;6.30;99.90;;;;;;5054158;28;20178;-69
2023/12/14 01:38:52;;;;;;;21.17;11.70;;;6.30;99.90;;;;;;5053495;28;20692;-69
2023/12/14 01:41:18;;;;;;;17.20;11.70;;;6.30;99.90;;;;;;5052041;28;20212;-69
2023/12/14 01:43:44;;;;;;;17.50;11.43;;;6.30;99.90;;;;;;5052001;28;20183;-68
2023/12/14 01:46:10;;;;;;;18.80;12.07;;;6.30;99.90;;;;;;5053328;28;20174;-69
2023/12/14 01:48:36;;;;;;;23.43;13.13;;;6.30;99.90;;;;;;5053210;28;20210;-68
2023/12/14 01:51:03;;;;;;;21.77;12.90;;;6.20;99.90;;;;;;5052959;28;20205;-69
2023/12/14 01:53:28;;;;;;;21.10;13.53;;;6.20;99.90;;;;;;5053156;28;20178;-69
2023/12/14 01:55:54;;;;;;;23.60;13.87;;;6.20;99.90;;;;;;5053638;28;20198;-69
2023/12/14 01:58:20;;;;;;;25.70;13.73;;;6.20;99.90;;;;;;5053219;28;20194;-69
2023/12/14 02:00:59;;;;;;;27.90;15.70;;;6.10;99.90;;;;;;5053052;28;20189;-69
2023/12/14 02:03:25;;;;;;;26.10;14.67;;;6.10;99.90;;;;;;5053311;28;20557;-69
2023/12/14 02:05:51;;;;;;;25.47;16.47;;;6.10;99.90;;;;;;5052790;28;20183;-68
2023/12/14 02:08:17;;;;;;;29.90;16.47;;;6.10;99.90;;;;;;5052966;28;20206;-69
2023/12/14 02:10:42;;;;;;;34.40;16.97;;;6.10;99.90;;;;;;5052876;28;20202;-69
2023/12/14 02:13:08;;;;;;;30.57;17.43;;;6.10;99.90;;;;;;5051761;28;20182;-69
2023/12/14 02:15:34;;;;;;;27.13;16.20;;;6.10;99.90;;;;;;5053137;28;20206;-69
2023/12/14 02:18:00;;;;;;;33.83;17.60;;;6.10;99.90;;;;;;5053019;28;20209;-69
2023/12/14 02:20:25;;;;;;;36.20;18.83;;;6.10;99.90;;;;;;5052749;28;20186;-68
2023/12/14 02:22:52;;;;;;;41.87;20.67;;;6.00;99.90;;;;;;5054933;28;20255;-68
2023/12/14 02:25:23;;;;;;;39.43;19.87;;;6.00;99.90;;;;;;5057262;28;20202;-68
2023/12/14 02:27:51;;;;;;;36.87;19.33;;;6.00;99.90;;;;;;5055704;28;20206;-68
2023/12/14 02:30:18;;;;;;;34.00;18.10;;;5.90;99.90;;;;;;5056741;28;20198;-68
2023/12/14 02:32:44;;;;;;;37.53;19.57;;;5.90;99.90;;;;;;5056760;28;20201;-68
2023/12/14 02:35:10;;;;;;;38.60;18.30;;;5.80;99.90;;;;;;5056749;28;20175;-68
2023/12/14 02:37:42;;;;;;;34.30;17.33;;;5.80;99.90;;;;;;5056558;28;20321;-68
2023/12/14 02:40:09;;;;;;;37.90;18.40;;;5.80;99.90;;;;;;5055394;28;20190;-68
2023/12/14 02:42:35;;;;;;;34.80;17.33;;;5.70;99.90;;;;;;5057241;28;20178;-68
2023/12/14 02:45:02;;;;;;;35.77;17.47;;;5.70;99.90;;;;;;5056627;28;20190;-68
2023/12/14 02:47:29;;;;;;;32.57;18.27;;;5.70;99.90;;;;;;5056438;28;20178;-69
2023/12/14 02:49:55;;;;;;;32.27;17.30;;;5.70;99.90;;;;;;5056101;28;20722;-69
2023/12/14 02:52:21;;;;;;;34.33;17.93;;;5.70;99.90;;;;;;5055179;28;20183;-69
2023/12/14 02:54:47;;;;;;;29.30;16.50;;;5.70;99.90;;;;;;5055020;28;20178;-69
2023/12/14 02:57:13;;;;;;;32.63;16.73;;;5.70;99.90;;;;;;5054857;28;20262;-69
2023/12/14 02:59:39;;;;;;;34.70;16.97;;;5.70;99.90;;;;;;5056305;28;20178;-68
2023/12/14 03:02:05;;;;;;;36.90;16.23;;;5.70;99.90;;;;;;5056520;28;20262;-68
2023/12/14 03:04:31;;;;;;;30.73;17.13;;;5.70;99.90;;;;;;5055933;28;20183;-69
2023/12/14 03:06:57;;;;;;;29.80;15.73;;;5.70;99.90;;;;;;5056140;28;20182;-68
2023/12/14 03:09:23;;;;;;;28.23;15.57;;;5.70;99.90;;;;;;5055906;28;20210;-69
2023/12/14 03:11:49;;;;;;;23.67;14.20;;;5.60;99.90;;;;;;5056126;28;20696;-69
2023/12/14 03:14:15;;;;;;;24.37;14.50;;;5.60;99.90;;;;;;5054778;28;20277;-69
2023/12/14 03:16:40;;;;;;;27.17;14.47;;;5.60;99.90;;;;;;5054769;28;20263;-69
2023/12/14 03:19:06;;;;;;;29.30;15.37;;;5.60;99.90;;;;;;5055640;28;20190;-68
2023/12/14 03:21:32;;;;;;;25.77;15.63;;;5.60;99.90;;;;;;5055964;28;20643;-69
2023/12/14 03:23:58;;;;;;;29.53;16.30;;;5.60;99.90;;;;;;5054872;28;20189;-69
2023/12/14 03:26:23;;;;;;;25.50;15.03;;;5.70;99.90;;;;;;5054969;28;20644;-69
2023/12/14 03:28:49;;;;;;;23.33;14.17;;;5.70;99.90;;;;;;5056039;28;20202;-69
2023/12/14 03:31:15;;;;;;;25.97;14.37;;;5.70;99.90;;;;;;5055650;28;20288;-69
2023/12/14 03:33:42;;;;;;;31.53;16.43;;;5.60;99.90;;;;;;5053687;28;20174;-69
2023/12/14 03:36:08;;;;;;;29.70;16.57;;;5.60;99.90;;;;;;5054157;28;20189;-69
2023/12/14 03:38:34;;;;;;;32.53;17.67;;;5.60;99.90;;;;;;5055593;28;20194;-69
2023/12/14 03:41:00;;;;;;;39.53;18.43;;;5.60;99.90;;;;;;5055841;28;20175;-69
2023/12/14 03:43:27;;;;;;;33.90;18.53;;;5.60;99.90;;;;;;5055457;28;20170;-69
2023/12/14 03:45:52;;;;;;;38.97;19.67;;;5.60;99.90;;;;;;5055525;28;20186;-69
2023/12/14 03:48:18;;;;;;;38.87;19.73;;;5.70;99.90;;;;;;5055225;28;20214;-69
2023/12/14 03:50:44;;;;;;;45.73;20.50;;;5.60;99.90;;;;;;5055023;28;20206;-69
2023/12/14 03:53:09;;;;;;;38.50;20.07;;;5.60;99.90;;;;;;5055328;28;20206;-69
2023/12/14 03:55:35;;;;;;;42.73;20.77;;;5.60;99.90;;;;;;5055333;28;20170;-69
2023/12/14 03:58:01;;;;;;;43.50;21.70;;;5.60;99.90;;;;;;5055557;28;20209;-69
2023/12/14 04:00:27;;;;;;;54.90;23.80;;;5.60;99.90;;;;;;5053956;28;20282;-69
2023/12/14 04:02:53;;;;;;;46.07;22.47;;;5.60;99.90;;;;;;5053765;28;20186;-68
2023/12/14 04:05:18;;;;;;;50.17;23.60;;;5.60;99.90;;;;;;5054972;28;20544;-68
2023/12/14 04:07:44;;;;;;;45.80;22.90;;;5.50;99.90;;;;;;5055236;28;20230;-69
2023/12/14 04:10:11;;;;;;;51.70;23.60;;;5.50;99.90;;;;;;5054864;28;20210;-69
2023/12/14 04:12:38;;;;;;;57.73;24.70;;;5.50;99.90;;;;;;5054933;28;20213;-68
2023/12/14 04:15:09;;;;;;;51.80;23.20;;;5.50;99.90;;;;;;5054881;28;20185;-68
2023/12/14 04:17:35;;;;;;;51.27;22.00;;;5.50;99.90;;;;;;5055046;28;20648;-68
2023/12/14 04:20:02;;;;;;;45.27;20.30;;;5.50;99.90;;;;;;5054632;28;20186;-68
2023/12/14 04:22:29;;;;;;;49.63;20.57;;;5.50;99.90;;;;;;5054998;28;20178;-68
2023/12/14 04:24:55;;;;;;;38.77;19.33;;;5.50;99.90;;;;;;5054993;28;20651;-68
2023/12/14 04:27:24;;;;;;;37.50;19.17;;;5.50;99.90;;;;;;5054757;28;20231;-68
2023/12/14 04:29:49;;;;;;;35.27;16.03;;;5.50;99.90;;;;;;5055155;28;20315;-68
2023/12/14 04:32:15;;;;;;;29.03;15.53;;;5.50;99.90;;;;;;5054876;28;20194;-68
2023/12/14 04:34:41;;;;;;;28.13;15.90;;;5.50;99.90;;;;;;5054402;28;20186;-68
2023/12/14 04:37:07;;;;;;;28.30;15.80;;;5.50;99.90;;;;;;5054452;28;20178;-68
2023/12/14 04:39:32;;;;;;;33.43;16.97;;;5.40;99.90;;;;;;5053090;28;20206;-69
2023/12/14 04:41:58;;;;;;;34.87;17.13;;;5.40;99.90;;;;;;5054433;28;20183;-69
2023/12/14 04:44:24;;;;;;;34.00;16.30;;;5.40;99.90;;;;;;5054320;28;20170;-69
2023/12/14 04:46:50;;;;;;;33.70;17.40;;;5.40;99.90;;;;;;5054394;28;20182;-69
2023/12/14 04:49:16;;;;;;;38.10;17.60;;;5.40;99.90;;;;;;5053866;28;20206;-68
2023/12/14 04:51:42;;;;;;;34.73;17.93;;;5.40;99.90;;;;;;5054476;28;20206;-68
2023/12/14 04:54:08;;;;;;;35.40;16.00;;;5.30;99.90;;;;;;5054302;28;20198;-69
2023/12/14 04:56:34;;;;;;;31.90;15.90;;;5.30;99.90;;;;;;5052825;28;20232;-68
2023/12/14 04:59:00;;;;;;;33.33;16.37;;;5.30;99.90;;;;;;5052744;28;20202;-68
2023/12/14 05:01:29;;;;;;;35.57;16.80;;;5.30;99.90;;;;;;5053984;28;20632;-69
2023/12/14 05:03:55;;;;;;;35.53;16.63;;;5.30;99.90;;;;;;5054586;28;20174;-68
2023/12/14 05:06:21;;;;;;;34.53;16.43;;;5.30;99.90;;;;;;5053917;28;20590;-69
2023/12/14 05:08:47;;;;;;;38.30;15.93;;;5.30;99.90;;;;;;5059000;28;20206;-68
2023/12/14 05:11:13;;;;;;;26.13;15.07;;;5.20;99.90;;;;;;5059982;28;20291;-68
2023/12/14 05:13:40;;;;;;;27.60;13.00;;;5.30;99.90;;;;;;5052773;28;20555;-68
2023/12/14 05:16:06;;;;;;;22.03;13.30;;;5.20;99.90;;;;;;5053897;28;20185;-68
2023/12/14 05:18:32;;;;;;;27.77;13.37;;;5.20;99.90;;;;;;5054083;28;20190;-69
2023/12/14 05:20:58;;;;;;;27.03;13.37;;;5.20;99.90;;;;;;5053973;28;20228;-69
2023/12/14 05:23:24;;;;;;;24.23;12.60;;;5.20;99.90;;;;;;5053704;28;20186;-69
2023/12/14 05:25:50;;;;;;;24.87;14.17;;;5.10;99.90;;;;;;5054128;28;20184;-69
2023/12/14 05:28:16;;;;;;;20.47;12.23;;;5.10;99.90;;;;;;5053711;28;20194;-69
2023/12/14 05:30:42;;;;;;;20.70;12.20;;;5.20;99.90;;;;;;5053780;28;20202;-69
2023/12/14 05:33:08;;;;;;;22.57;12.67;;;5.10;99.90;;;;;;5053488;28;20175;-68
2023/12/14 05:35:34;;;;;;;25.30;12.13;;;5.20;99.90;;;;;;5053434;28;20548;-69
2023/12/14 05:38:00;;;;;;;21.90;12.10;;;5.20;99.90;;;;;;5053840;28;20194;-69
2023/12/14 05:40:26;;;;;;;24.40;12.20;;;5.20;99.90;;;;;;5052208;28;20281;-69
2023/12/14 05:42:51;;;;;;;25.70;13.37;;;5.10;99.90;;;;;;5052169;28;20264;-68
2023/12/14 05:45:18;;;;;;;26.97;13.90;;;5.10;99.90;;;;;;5053626;28;20178;-69
2023/12/14 05:47:44;;;;;;;25.67;13.87;;;5.10;99.90;;;;;;5053100;28;20628;-68
2023/12/14 05:50:10;;;;;;;26.40;14.17;;;5.10;99.90;;;;;;5052841;28;20284;-68
2023/12/14 05:52:40;;;;;;;27.43;13.70;;;5.10;99.90;;;;;;5053702;28;20205;-68
2023/12/14 05:55:10;;;;;;;28.47;14.50;;;5.10;99.90;;;;;;5052155;28;20623;-68
2023/12/14 05:57:36;;;;;;;36.47;15.00;;;5.10;99.90;;;;;;5053126;28;20198;-69
2023/12/14 06:00:05;;;;;;;26.43;14.57;;;5.10;99.90;;;;;;5053092;28;20178;-68
2023/12/14 06:02:32;;;;;;;31.93;15.57;;;5.10;99.90;;;;;;5052956;28;20210;-69
2023/12/14 06:04:58;;;;;;;25.70;14.07;;;5.10;99.90;;;;;;5051547;28;20183;-69
2023/12/14 06:07:24;;;;;;;33.13;14.97;;;5.10;99.90;;;;;;5053190;28;20182;-68
2023/12/14 06:09:50;;;;;;;33.20;14.93;;;5.10;99.90;;;;;;5053440;28;20578;-68
2023/12/14 06:12:16;;;;;;;29.83;14.60;;;5.10;99.90;;;;;;5052985;28;20636;-68
2023/12/14 06:14:42;;;;;;;25.50;14.00;;;5.00;99.90;;;;;;5052882;28;20201;-68
2023/12/14 06:17:07;;;;;;;33.30;15.73;;;5.00;99.90;;;;;;5052863;28;20663;-69
2023/12/14 06:19:33;;;;;;;29.07;14.70;;;5.00;99.90;;;;;;5052833;28;20201;-69
2023/12/14 06:21:59;;;;;;;29.50;15.40;;;5.00;99.90;;;;;;5052925;28;20175;-68
2023/12/14 06:24:25;;;;;;;30.17;15.87;;;5.00;99.90;;;;;;5052816;28;20253;-70
2023/12/14 06:26:50;;;;;;;32.97;15.93;;;5.00;99.90;;;;;;5053088;28;20181;-70
2023/12/14 06:29:16;;;;;;;27.20;15.20;;;5.00;99.90;;;;;;5052887;28;20683;-70
2023/12/14 06:31:42;;;;;;;24.93;13.63;;;5.10;99.90;;;;;;5052699;28;20256;-70
2023/12/14 06:34:08;;;;;;;30.17;15.30;;;5.10;99.90;;;;;;5052700;28;20179;-70
2023/12/14 06:36:34;;;;;;;27.80;14.77;;;5.00;99.90;;;;;;5051480;28;20609;-70
2023/12/14 06:39:03;;;;;;;30.27;14.70;;;5.00;99.90;;;;;;5051299;28;20298;-70
2023/12/14 06:41:29;;;;;;;26.50;15.33;;;5.00;99.90;;;;;;5051485;28;20187;-70
2023/12/14 06:43:55;;;;;;;26.87;14.17;;;5.00;99.90;;;;;;5052691;28;20260;-70
2023/12/14 06:46:21;;;;;;;31.17;15.00;;;5.00;99.90;;;;;;5052625;28;20179;-70
2023/12/14 06:48:47;;;;;;;27.87;15.00;;;5.10;99.90;;;;;;5052389;28;20640;-70
2023/12/14 06:51:13;;;;;;;36.33;15.93;;;5.10;99.90;;;;;;5052334;28;20206;-70
2023/12/14 06:53:43;;;;;;;38.20;16.53;;;5.10;99.90;;;;;;5052547;28;20258;-70
2023/12/14 06:56:10;;;;;;;43.77;19.37;;;5.00;99.90;;;;;;5051356;28;20600;-70
2023/12/14 06:58:45;;;;;;;66.67;38.37;;;5.00;99.90;;;;;;5052710;28;20230;-70
2023/12/14 07:01:15;;;;;;;38.33;22.80;;;5.00;99.90;;;;;;5052880;28;20512;-70
2023/12/14 07:03:43;;;;;;;40.57;21.00;;;5.00;99.90;;;;;;5052566;28;20182;-70
2023/12/14 07:06:13;;;;;;;41.83;22.17;;;5.00;99.90;;;;;;5052223;28;20309;-70
2023/12/14 07:08:40;;;;;;;55.37;24.97;;;5.00;99.90;;;;;;5052575;28;20228;-70
2023/12/14 07:11:06;;;;;;;46.97;22.40;;;5.00;99.90;;;;;;5056389;28;20679;-69
2023/12/14 07:13:32;;;;;;;49.67;22.70;;;5.00;99.90;;;;;;5055448;28;20179;-70
2023/12/14 07:15:59;;;;;;;53.43;24.30;;;5.00;99.90;;;;;;5056283;28;20174;-70
2023/12/14 07:18:24;;;;;;;50.60;23.73;;;4.90;99.90;;;;;;5054593;28;20202;-69
2023/12/14 07:20:50;;;;;;;57.40;26.97;;;4.90;99.90;;;;;;5054399;28;20237;-69
2023/12/14 07:23:16;;;;;;;50.73;26.07;;;4.90;99.90;;;;;;5055916;28;20182;-69
2023/12/14 07:25:42;;;;;;;59.93;27.27;;;4.90;99.90;;;;;;5055891;28;20182;-69
2023/12/14 07:28:07;;;;;;;60.70;24.80;;;4.90;99.90;;;;;;5055883;28;20285;-69
2023/12/14 07:30:33;;;;;;;55.30;23.93;;;4.90;99.90;;;;;;5055962;28;20202;-69
2023/12/14 07:32:59;;;;;;;50.17;24.70;;;4.90;99.90;;;;;;5056300;28;20527;-69
2023/12/14 07:35:25;;;;;;;50.57;24.10;;;4.80;99.90;;;;;;5055826;28;20195;-69
2023/12/14 07:37:50;;;;;;;59.87;25.37;;;4.90;99.90;;;;;;5055582;28;20241;-69
2023/12/14 07:40:16;;;;;;;58.07;24.47;;;4.90;99.90;;;;;;5056107;28;20206;-69
2023/12/14 07:42:42;;;;;;;61.33;26.43;;;4.90;99.90;;;;;;5055894;28;20182;-69
2023/12/14 07:45:09;;;;;;;52.63;23.57;;;4.90;99.90;;;;;;5055553;28;20187;-69
2023/12/14 07:47:35;;;;;;;50.53;24.20;;;4.90;99.90;;;;;;5055434;28;20236;-68
2023/12/14 07:50:01;;;;;;;50.60;24.10;;;4.90;99.90;;;;;;5054929;28;20206;-69
2023/12/14 07:52:27;;;;;;;54.03;24.23;;;4.80;99.90;;;;;;5055303;28;20657;-69
2023/12/14 07:54:52;;;;;;;52.77;24.13;;;4.80;99.90;;;;;;5055829;28;20261;-69
2023/12/14 07:57:18;;;;;;;57.97;26.80;;;4.80;99.90;;;;;;5053870;28;20178;-69
2023/12/14 07:59:45;;;;;;;52.47;24.53;;;4.80;99.90;;;;;;5055239;28;20235;-68
2023/12/14 08:02:10;;;;;;;49.27;24.73;;;4.70;99.90;;;;;;5055857;28;20281;-69
2023/12/14 08:04:36;;;;;;;50.97;26.97;;;4.70;99.90;;;;;;5053903;28;20561;-68
2023/12/14 08:07:02;;;;;;;45.93;22.67;;;4.70;99.90;;;;;;5054846;28;20178;-69
2023/12/14 08:09:28;;;;;;;40.33;22.03;;;4.70;99.90;;;;;;5054940;28;20305;-69
2023/12/14 08:11:54;;;;;;;44.27;21.83;;;4.80;99.90;;;;;;5055194;28;20198;-69
2023/12/14 08:14:19;;;;;;;40.00;21.57;;;4.70;99.90;;;;;;5055354;28;20517;-69
2023/12/14 08:16:45;;;;;;;45.37;22.53;;;4.70;99.90;;;;;;5053866;28;20187;-70
2023/12/14 08:19:11;;;;;;;42.47;21.77;;;4.80;99.90;;;;;;5054835;28;20206;-69
2023/12/14 08:21:37;;;;;;;42.67;21.47;;;4.70;99.90;;;;;;5054141;28;20183;-69
2023/12/14 08:24:03;;;;;;;41.30;21.87;;;4.70;99.90;;;;;;5053492;28;20271;-69
2023/12/14 08:26:28;;;;;;;37.47;18.97;;;4.70;99.90;;;;;;5054643;28;20179;-69
2023/12/14 08:28:54;;;;;;;39.87;21.13;;;4.70;99.90;;;;;;5054713;28;20284;-69
2023/12/14 08:31:20;;;;;;;40.83;22.27;;;4.80;99.90;;;;;;5054517;28;20201;-69
2023/12/14 08:33:46;;;;;;;45.63;22.83;;;4.70;99.90;;;;;;5054564;28;20257;-69
2023/12/14 08:36:15;;;;;;;50.13;23.07;;;4.70;99.90;;;;;;5054507;28;20159;-69
2023/12/14 08:38:41;;;;;;;50.87;23.77;;;4.70;99.90;;;;;;5053167;28;20249;-69
2023/12/14 08:41:07;;;;;;;49.17;23.17;;;4.70;99.90;;;;;;5054446;28;20202;-68
2023/12/14 08:43:32;;;;;;;49.43;23.27;;;4.80;99.90;;;;;;5053132;28;20183;-69
2023/12/14 08:45:58;;;;;;;46.93;22.53;;;4.70;99.90;;;;;;5054263;28;20183;-69
2023/12/14 08:48:24;;;;;;;48.73;22.73;;;4.70;99.90;;;;;;5054158;28;20213;-69
2023/12/14 08:50:52;;;;;;;52.63;25.23;;;4.70;99.90;;;;;;5054418;28;20204;-69
2023/12/14 08:53:18;;;;;;;48.87;23.80;;;4.70;99.90;;;;;;5054144;28;20553;-69
2023/12/14 08:55:44;;;;;;;53.93;23.97;;;4.70;99.90;;;;;;5054243;28;20181;-69
2023/12/14 08:58:10;;;;;;;55.60;24.77;;;4.70;99.90;;;;;;5054687;28;20198;-69
2023/12/14 09:00:35;;;;;;;53.33;24.60;;;4.70;99.90;;;;;;5054822;28;20189;-69
2023/12/14 09:03:01;;;;;;;51.93;23.43;;;4.70;99.90;;;;;;5054215;28;20276;-69
2023/12/14 09:05:27;;;;;;;40.77;22.33;;;4.70;99.90;;;;;;5054507;28;20193;-69
2023/12/14 09:07:55;;;;;;;53.10;22.30;;;4.70;99.90;;;;;;5054892;28;20221;-69
2023/12/14 09:10:25;;;;;;;42.47;21.37;;;4.70;99.90;;;;;;5053925;28;20575;-69
2023/12/14 09:12:51;;;;;;;40.83;21.03;;;4.70;99.90;;;;;;5053878;28;20244;-69
2023/12/14 09:15:17;;;;;;;44.73;21.93;;;4.60;99.90;;;;;;5053728;28;20612;-69
2023/12/14 09:17:43;;;;;;;45.20;22.10;;;4.70;99.90;;;;;;5054168;28;20198;-69
2023/12/14 09:20:09;;;;;;;37.80;20.60;;;4.60;99.90;;;;;;5054017;28;20539;-69
2023/12/14 09:22:35;;;;;;;39.93;20.93;;;4.70;99.90;;;;;;5052386;28;20190;-69
2023/12/14 09:25:01;;;;;;;45.10;22.53;;;4.60;99.90;;;;;;5053882;28;20672;-69
2023/12/14 09:27:27;;;;;;;43.93;21.63;;;4.50;99.90;;;;;;5052276;28;20185;-69
2023/12/14 09:29:52;;;;;;;41.37;21.53;;;4.50;99.90;;;;;;5054015;28;20301;-69
2023/12/14 09:32:18;;;;;;;44.30;21.90;;;4.60;99.90;;;;;;5052792;28;20232;-69
2023/12/14 09:34:44;;;;;;;42.87;24.13;;;4.60;99.90;;;;;;5053627;28;20178;-69
2023/12/14 09:37:11;;;;;;;45.40;22.67;;;4.60;99.90;;;;;;5053192;28;20179;-69
2023/12/14 09:39:37;;;;;;;44.90;24.17;;;4.60;99.90;;;;;;5053310;28;20198;-69
2023/12/14 09:42:04;;;;;;;45.83;24.10;;;4.60;99.90;;;;;;5053981;28;20182;-69
2023/12/14 09:44:30;;;;;;;47.33;22.80;;;4.60;99.90;;;;;;5051502;28;20186;-70
2023/12/14 09:47:02;;;;;;;46.53;23.97;;;4.60;99.90;;;;;;5053570;28;20171;-69
2023/12/14 09:49:30;;;;;;;48.63;23.27;;;4.60;99.90;;;;;;5051777;28;20213;-70
2023/12/14 09:51:59;;;;;;;42.73;23.23;;;4.60;99.90;;;;;;5052880;28;20268;-69
2023/12/14 09:54:27;;;;;;;49.07;23.40;;;4.60;99.90;;;;;;5053399;28;20226;-70
2023/12/14 09:56:53;;;;;;;43.43;23.40;;;4.60;99.90;;;;;;5053643;28;20261;-70
2023/12/14 09:59:21;;;;;;;47.40;22.20;;;4.60;99.90;;;;;;5053140;28;20668;-70
2023/12/14 10:01:47;;;;;;;42.73;22.83;;;4.60;99.90;;;;;;5053261;28;20178;-69
2023/12/14 10:04:15;;;;;;;43.67;22.67;;;4.70;99.90;;;;;;5052705;28;20236;-70
2023/12/14 10:06:43;;;;;;;44.80;23.73;;;4.70;99.90;;;;;;5051589;28;20273;-69
2023/12/14 10:09:09;;;;;;;46.70;23.53;;;4.70;99.90;;;;;;5051891;28;20267;-70
2023/12/14 10:11:39;;;;;;;45.10;22.53;;;4.80;99.90;;;;;;5051772;28;20216;-70
2023/12/14 10:14:34;;;;;;;39.90;21.73;;;4.80;99.90;;;;;;5053099;28;20182;-70
2023/12/14 10:17:31;;;;;;;40.67;22.73;;;4.70;99.90;;;;;;5052585;28;20190;-70
2023/12/14 10:20:00;;;;;;;41.03;22.57;;;4.70;99.90;;;;;;5052371;28;20232;-69
2023/12/14 10:22:28;;;;;;;46.10;22.47;;;4.70;99.90;;;;;;5051508;28;20190;-70
2023/12/14 10:24:54;;;;;;;44.40;22.73;;;4.70;99.90;;;;;;5052977;28;20182;-70
2023/12/14 10:27:20;;;;;;;39.17;20.97;;;4.60;99.90;;;;;;5051550;28;20208;-70
2023/12/14 10:29:47;;;;;;;35.87;20.67;;;4.60;99.90;;;;;;5052692;28;20182;-70
2023/12/14 10:32:12;;;;;;;43.47;23.77;;;4.60;99.90;;;;;;5051600;28;20532;-69
2023/12/14 10:34:41;;;;;;;41.90;21.60;;;4.60;99.90;;;;;;5053057;28;20192;-69
2023/12/14 10:37:08;;;;;;;39.87;22.87;;;4.60;99.90;;;;;;5052627;28;20166;-70
2023/12/14 10:39:35;;;;;;;39.43;22.37;;;4.70;99.90;;;;;;5053369;28;20644;-69
2023/12/14 10:42:06;;;;;;;49.17;24.00;;;4.70;99.90;;;;;;5052797;28;20190;-69
2023/12/14 10:44:36;;;;;;;48.63;23.40;;;4.70;99.90;;;;;;5056053;28;20184;-69
2023/12/14 10:47:04;;;;;;;50.90;22.27;;;4.70;99.90;;;;;;5056469;28;20193;-69
2023/12/14 10:49:30;;;;;;;51.90;23.23;;;4.70;99.90;;;;;;5056457;28;20698;-69
2023/12/14 10:51:58;;;;;;;52.73;25.50;;;4.70;99.90;;;;;;5056443;28;20282;-69
2023/12/14 10:54:26;;;;;;;47.20;23.17;;;4.70;99.90;;;;;;5056913;28;20207;-69
2023/12/14 10:56:58;;;;;;;46.27;22.60;;;4.70;99.90;;;;;;5059818;28;20182;-70
2023/12/14 10:59:24;;;;;;;46.30;23.07;;;4.70;99.90;;;;;;5058241;28;20201;-71
2023/12/14 11:01:54;;;;;;;51.33;23.73;;;4.70;99.90;;;;;;5057457;28;20177;-70
2023/12/14 11:04:27;;;;;;;45.93;22.67;;;4.70;99.90;;;;;;5056731;28;20551;-70
2023/12/14 11:06:54;;;;;;;43.67;22.10;;;4.70;99.90;;;;;;5056287;28;20608;-70
2023/12/14 11:09:24;;;;;;;46.23;23.07;;;4.80;99.90;;;;;;5056531;28;20255;-70
2023/12/14 11:11:53;;;;;;;38.73;21.87;;;4.70;99.90;;;;;;5056227;28;20190;-70
2023/12/14 11:14:20;;;;;;;38.23;20.57;;;4.70;99.90;;;;;;5056241;28;20255;-70
2023/12/14 11:16:48;;;;;;;45.57;22.90;;;4.70;99.90;;;;;;5054943;28;20179;-70
2023/12/14 11:19:25;;;;;;;44.57;22.47;;;4.80;99.90;;;;;;5054838;28;20198;-70
2023/12/14 11:21:55;;;;;;;42.83;22.73;;;4.80;99.90;;;;;;5055855;28;20158;-70
2023/12/14 11:24:21;;;;;;;48.60;21.63;;;4.70;99.90;;;;;;5054774;28;20190;-70
2023/12/14 11:26:52;;;;;;;37.67;21.37;;;4.70;99.90;;;;;;5054740;28;20179;-70
2023/12/14 11:29:22;;;;;;;36.63;20.87;;;4.70;99.90;;;;;;5056252;28;20194;-70
2023/12/14 11:31:48;;;;;;;37.27;21.70;;;4.70;99.90;;;;;;5055974;28;20186;-70
2023/12/14 11:34:17;;;;;;;43.57;22.07;;;4.70;99.90;;;;;;5054612;28;20177;-70
2023/12/14 11:36:43;;;;;;;47.07;23.87;;;4.70;99.90;;;;;;5055653;28;20194;-69
2023/12/14 11:39:11;;;;;;;49.83;24.30;;;4.70;99.90;;;;;;5056260;28;20282;-70
2023/12/14 11:41:38;;;;;;;46.93;23.13;;;4.70;99.90;;;;;;5055725;28;20193;-70
2023/12/14 11:44:04;;;;;;;54.60;23.57;;;4.70;99.90;;;;;;5055580;28;20174;-69
2023/12/14 11:46:31;;;;;;;54.03;24.63;;;4.60;99.90;;;;;;5054621;28;20605;-69
2023/12/14 11:48:58;;;;;;;51.07;22.80;;;4.60;99.90;;;;;;5055294;28;20248;-70
2023/12/14 11:51:25;;;;;;;49.47;24.70;;;4.60;99.90;;;;;;5055315;28;20693;-70
2023/12/14 11:53:51;;;;;;;53.80;24.07;;;4.60;99.90;;;;;;5055914;28;20166;-70
2023/12/14 11:56:18;;;;;;;49.70;22.83;;;4.60;99.90;;;;;;5055081;28;20166;-69
2023/12/14 11:58:45;;;;;;;54.17;23.73;;;4.60;99.90;;;;;;5055451;28;20201;-70
2023/12/14 12:01:15;;;;;;;53.33;22.70;;;4.60;99.90;;;;;;5055226;28;20181;-70
2023/12/14 12:03:40;;;;;;;53.53;24.30;;;4.60;99.90;;;;;;5054068;28;20202;-70
2023/12/14 12:06:06;;;;;;;53.03;24.50;;;4.70;99.90;;;;;;5054795;28;20651;-70
2023/12/14 12:08:42;;;;;;;48.87;24.27;;;4.70;99.90;;;;;;5055209;28;20206;-70
2023/12/14 12:11:07;;;;;;;45.07;24.07;;;4.70;99.90;;;;;;5055390;28;20214;-70
2023/12/14 12:13:34;;;;;;;43.20;22.33;;;4.70;99.90;;;;;;5053714;28;20604;-70
2023/12/14 12:16:00;;;;;;;48.57;25.97;;;4.70;99.90;;;;;;5055025;28;20178;-70
2023/12/14 12:18:27;;;;;;;43.13;22.23;;;4.60;99.90;;;;;;5053676;28;20201;-70
2023/12/14 12:20:53;;;;;;;46.10;22.50;;;4.60;99.90;;;;;;5053402;28;20189;-70
2023/12/14 12:23:19;;;;;;;44.00;22.17;;;4.60;99.90;;;;;;5055137;28;20170;-70
2023/12/14 12:25:44;;;;;;;41.93;21.80;;;4.50;99.90;;;;;;5054809;28;20647;-70
2023/12/14 12:28:10;;;;;;;42.50;23.53;;;4.50;99.90;;;;;;5054946;28;20197;-70
2023/12/14 12:30:36;;;;;;;49.40;23.17;;;4.60;99.90;;;;;;5053647;28;20729;-70
2023/12/14 12:33:02;;;;;;;38.60;20.50;;;4.50;99.90;;;;;;5054862;28;20162;-70